Flight Track Log - Related Links

Times and Time Zones

All times are in EDT time to prevent confusion due to time zone crossing. See the D-ABTH flight status page for this flight to view local times or setup timezone preferences in your user account.

Time Position Orientation Groundspeed Altitude Reporting Facility
EDT Latitude Longitude Course Direction KTS MPH feet Rate Location/Type
Sun 05:04:18 AM 49.9650 8.4710 194° South 219 252 2,700  Level FlightAware ADS-B
Sun 05:04:43 AM 49.9370 8.4590 195° South 238 274 3,200 1,467 Climbing FlightAware ADS-B
Sun 05:05:03 AM 49.9160 8.4460 202° Southwest 246 283 3,800 1,558 Climbing FlightAware ADS-B
Sun 05:07:00 AM 50.0520 8.1281 308° West  Level Estimated
Sun 05:08:00 AM 50.1214 7.9643 308° West  Level Estimated
Sun 05:09:00 AM 50.1905 7.8001 308° West  Level Estimated
Sun 05:10:00 AM 50.2594 7.6354 305° West  Level Estimated
Sun 05:11:00 AM 50.3818 7.5888 346° North  Level FlightAware Approximate
Sun 05:12:00 AM 50.4503 7.4231 302° West  Level Estimated
Sun 05:13:00 AM 50.5187 7.2568 306° West  Level Estimated
Sun 05:14:00 AM 50.5867 7.0901 306° West  Level Estimated
Sun 05:15:00 AM 50.6545 6.9229 303° West  Level Estimated
Sun 05:16:00 AM 50.7567 6.8067 324° Northwest  Level FlightAware Approximate
Sun 05:17:00 AM 50.8241 6.6385 308° West  Level Estimated
Sun 05:18:00 AM 50.8912 6.4697 301° West  Level Estimated
Sun 05:19:00 AM 50.9581 6.3005 305° West  Level Estimated
Sun 05:20:00 AM 51.0470 6.1588 315° West  Level FlightAware Approximate
Sun 05:21:00 AM 51.1134 5.9885 303° West  Level Estimated
Sun 05:22:00 AM 51.1944 5.8348 310° West  Level FlightAware Approximate
Sun 05:22:18 AM 51.3090 6.4480 310° West 454 522 30,600  Level FlightAware ADS-B
Sun 05:22:58 AM 51.3620 6.3540 312° West 450 518 31,600 1,050 Climbing FlightAware ADS-B
Sun 05:23:38 AM 51.4150 6.2530 310° West 449 517 32,000 282 Climbing FlightAware ADS-B
Sun 05:24:23 AM 51.4780 6.1320 310° West 448 516 32,000  Level FlightAware ADS-B
Sun 05:25:03 AM 51.5300 6.0320 310° West 448 516 32,000  Level FlightAware ADS-B
Sun 05:25:43 AM 51.5840 5.9300 310° West 447 514 32,000  Level FlightAware ADS-B
Sun 05:26:28 AM 51.6440 5.8140 310° West 448 516 32,000  Level FlightAware ADS-B
Sun 05:27:08 AM 51.6980 5.7100 310° West 448 516 32,000 -1,233 Level FlightAware ADS-B
Sun 05:27:41 AM 51.7424 5.6192 310° West 492 566 30,500  Descending FlightAware UK
Sun 05:27:53 AM 51.7580 5.5980 310° West 448 516 32,000  Climbing FlightAware ADS-B
Sun 05:28:11 AM 51.7834 5.5449 310° West 492 566 30,500 -2,500 Descending FlightAware UK
Sun 05:28:29 AM 51.8088 5.5004 313° West 492 566 30,500 4,091 Level FlightAware UK
Sun 05:28:33 AM 51.8100 5.5000 313° West 447 514 32,000  Climbing FlightAware ADS-B
Sun 05:28:53 AM 51.8429 5.4413 313° West 490 564 30,500 -2,368 Descending FlightAware UK
Sun 05:29:11 AM 51.8670 5.3959 311° West 490 564 30,500 4,500 Level FlightAware UK
Sun 05:29:13 AM 51.8640 5.3990 311° West 448 516 32,000 1,915 Climbing FlightAware ADS-B
Sun 05:29:58 AM 51.9270 5.2780 310° West 451 519 32,000 -1,286 Level FlightAware ADS-B
Sun 05:30:23 AM 51.9619 5.2102 310° West 490 564 30,500  Descending FlightAware UK
Sun 05:30:38 AM 51.9810 5.1750 310° West 453 521 32,000 1,500 Climbing FlightAware ADS-B
Sun 05:31:23 AM 52.0350 5.0600 307° West 454 522 32,000 -1,429 Level FlightAware ADS-B
Sun 05:31:41 AM 52.0613 5.0011 307° West 492 566 30,500  Descending FlightAware UK
Sun 05:32:03 AM 52.0870 4.9520 307° West 455 524 32,000  Climbing FlightAware ADS-B
Sun 05:32:29 AM 52.1228 4.8709 307° West 492 566 30,500  Descending FlightAware UK
Sun 05:32:43 AM 52.1390 4.8420 307° West 456 525 32,000  Climbing FlightAware ADS-B
Sun 05:33:05 AM 52.1682 4.7724 307° West 494 568 30,500  Descending FlightAware UK
Sun 05:33:28 AM 52.1990 4.7170 307° West 456 525 32,000  Climbing FlightAware ADS-B
Sun 05:33:47 AM 52.2231 4.6588 307° West 492 566 30,500  Descending FlightAware UK
Sun 05:34:08 AM 52.2460 4.6160 307° West 456 525 32,000  Climbing FlightAware ADS-B
Sun 05:34:23 AM 52.2708 4.5619 307° West 492 566 30,500  Descending FlightAware UK
Sun 05:34:53 AM 52.3060 4.4910 307° West 457 526 32,000  Climbing FlightAware ADS-B
Sun 05:35:17 AM 52.3411 4.4158 307° West 492 566 30,500  Descending FlightAware UK
Sun 05:35:33 AM 52.3560 4.3840 307° West 457 526 32,000  Climbing FlightAware ADS-B
Sun 05:35:53 AM 52.3876 4.3170 307° West 492 566 30,500  Descending FlightAware UK
Sun 05:36:13 AM 52.4090 4.2700 307° West 457 526 32,000  Climbing FlightAware ADS-B
Sun 05:36:47 AM 52.4568 4.1685 307° West 492 566 30,500  Descending FlightAware UK
Sun 05:36:58 AM 52.4670 4.1450 307° West 456 525 32,000 1,765 Climbing FlightAware ADS-B
Sun 05:37:38 AM 52.5190 4.0330 307° West 456 525 32,000  Level FlightAware ADS-B
Sun 05:38:18 AM 52.5680 3.9270 307° West 456 525 32,000 -1,304 Level FlightAware ADS-B
Sun 05:38:47 AM 52.6088 3.8379 307° West 490 564 30,500  Descending FlightAware UK
Sun 05:39:03 AM 52.6250 3.8030 307° West 456 525 32,000 1,607 Climbing FlightAware ADS-B
Sun 05:39:43 AM 52.6780 3.6860 307° West 455 524 32,000 -1,607 Level FlightAware ADS-B
Sun 05:39:59 AM 52.6996 3.6388 307° West 492 566 30,500 -2,647 Descending FlightAware UK
Sun 05:40:17 AM 52.7223 3.5889 307° West 490 564 30,500 3,103 Level FlightAware UK
Sun 05:40:28 AM 52.7330 3.5640 307° West 455 524 32,000  Climbing FlightAware ADS-B
Sun 05:40:47 AM 52.7601 3.5055 307° West 492 566 30,500  Descending FlightAware UK
Sun 05:41:03 AM 52.7750 3.4720 307° West 455 524 32,000  Climbing FlightAware ADS-B
Sun 05:41:05 AM 52.7827 3.4554 307° West 490 564 30,500 -3,462 Descending FlightAware UK
Sun 05:41:29 AM 52.8125 3.3891 307° West 490 564 30,500  Level FlightAware UK
Sun 05:41:47 AM 52.8351 3.3389 307° West 490 564 30,500 3,750 Level FlightAware UK
Sun 05:41:53 AM 52.8390 3.3310 307° West 455 524 32,000 2,500 Climbing FlightAware ADS-B
Sun 05:42:23 AM 52.8780 3.2430 306° West 456 525 32,000 -1,667 Level FlightAware ADS-B
Sun 05:42:47 AM 52.9102 3.1714 306° West 492 566 30,500  Descending FlightAware UK
Sun 05:43:03 AM 52.9290 3.1300 306° West 454 522 32,000 1,607 Climbing FlightAware ADS-B
Sun 05:43:43 AM 52.9780 3.0190 306° West 453 521 32,000 -1,607 Level FlightAware ADS-B
Sun 05:43:59 AM 52.9994 2.9700 306° West 494 568 30,500  Descending FlightAware UK
Sun 05:44:23 AM 53.0270 2.9080 306° West 459 528 32,000  Climbing FlightAware ADS-B
Sun 05:44:46 AM 53.0590 2.8362 306° West 496 571 30,500  Descending FlightAware UK
Sun 05:45:08 AM 53.0820 2.7820 306° West 460 529 32,000  Climbing FlightAware ADS-B
Sun 05:45:46 AM 53.1341 2.6654 306° West 500 575 30,500  Descending FlightAware UK
Sun 05:45:48 AM 53.1330 2.6680 306° West 461 531 32,000  Climbing FlightAware ADS-B
Sun 05:46:04 AM 53.1566 2.6136 306° West 500 575 30,500 -2,647 Descending FlightAware UK
Sun 05:46:22 AM 53.1794 2.5617 306° West 500 575 30,500 3,103 Level FlightAware UK
Sun 05:46:33 AM 53.1890 2.5390 306° West 461 531 32,000  Climbing FlightAware ADS-B
Sun 05:46:58 AM 53.2235 2.4569 306° West 500 575 30,500  Descending FlightAware UK
Sun 05:47:13 AM 53.2360 2.4210 306° West 458 527 32,000  Climbing FlightAware ADS-B
Sun 05:47:28 AM 53.2572 2.3673 306° West 500 575 30,500 -2,727 Descending FlightAware UK
Sun 05:47:46 AM 53.2773 2.3143 302° West 500 575 30,500 3,600 Level FlightAware UK
Sun 05:47:53 AM 53.2820 2.3010 302° West 458 527 32,000 1,731 Climbing FlightAware ADS-B
Sun 05:48:38 AM 53.3330 2.1640 302° West 459 528 32,000 -1,385 Level FlightAware ADS-B
Sun 05:48:58 AM 53.3586 2.0984 302° West 500 575 30,500 -2,368 Descending FlightAware UK
Sun 05:49:16 AM 53.3789 2.0442 302° West 500 575 30,500 3,600 Level FlightAware UK
Sun 05:49:23 AM 53.3830 2.0330 302° West 460 529 32,000  Climbing FlightAware ADS-B
Sun 05:49:40 AM 53.4058 1.9723 302° West 500 575 30,500 -2,571 Descending FlightAware UK
Sun 05:49:58 AM 53.4263 1.9172 302° West 500 575 30,500 3,913 Level FlightAware UK
Sun 05:50:03 AM 53.4280 1.9100 302° West 460 529 32,000  Climbing FlightAware ADS-B
Sun 05:50:34 AM 53.4665 1.8089 302° West 500 575 30,500  Descending FlightAware UK
Sun 05:50:43 AM 53.4720 1.7940 302° West 460 529 32,000  Climbing FlightAware ADS-B
Sun 05:50:58 AM 53.4932 1.7368 302° West 500 575 30,500 -2,727 Descending FlightAware UK
Sun 05:51:16 AM 53.5135 1.6822 302° West 500 575 30,500 3,000 Level FlightAware UK
Sun 05:51:28 AM 53.5220 1.6580 302° West 461 531 32,000  Climbing FlightAware ADS-B
Sun 05:51:46 AM 53.5469 1.5917 302° West 500 575 30,500  Descending FlightAware UK
Sun 05:52:08 AM 53.5680 1.5350 302° West 460 529 32,000  Climbing FlightAware ADS-B
Sun 05:52:28 AM 53.5940 1.4632 302° West 498 573 30,500 -2,368 Descending FlightAware UK
Sun 05:52:46 AM 53.6141 1.4083 302° West 498 573 30,500 3,600 Level FlightAware UK
Sun 05:52:53 AM 53.6160 1.4020 302° West 461 531 32,000  Climbing FlightAware ADS-B
Sun 05:53:22 AM 53.6538 1.2990 302° West 496 571 30,500  Descending FlightAware UK
Sun 05:53:33 AM 53.6640 1.2700 302° West 460 529 32,000  Climbing FlightAware ADS-B
Sun 05:53:57 AM 53.6936 1.1899 302° West 496 571 30,500  Descending FlightAware UK
Sun 05:54:13 AM 53.7080 1.1490 302° West 459 528 32,000  Climbing FlightAware ADS-B
Sun 05:54:51 AM 53.7532 1.0248 302° West 496 571 30,500  Descending FlightAware UK
Sun 05:54:58 AM 53.7560 1.0170 302° West 462 532 32,000  Climbing FlightAware ADS-B
Sun 05:55:15 AM 53.7798 0.9512 302° West 498 573 30,500 -2,571 Descending FlightAware UK
Sun 05:55:33 AM 53.7997 0.8958 301° West 496 571 30,500 3,913 Level FlightAware UK
Sun 05:55:38 AM 53.8000 0.8930 301° West 462 532 32,000  Climbing FlightAware ADS-B
Sun 05:56:09 AM 53.8391 0.7851 301° West 498 573 30,500  Descending FlightAware UK
Sun 05:56:18 AM 53.8450 0.7680 301° West 462 532 32,000  Climbing FlightAware ADS-B
Sun 05:56:33 AM 53.8657 0.7107 301° West 498 573 30,500 -2,727 Descending FlightAware UK
Sun 05:56:51 AM 53.8856 0.6550 301° West 498 573 30,500 3,600 Level FlightAware UK
Sun 05:56:58 AM 53.8880 0.6470 301° West 464 534 32,000 4,286 Climbing FlightAware ADS-B
Sun 05:57:12 AM 53.9080 0.5916 302° West 464 534 32,000  Level FlightAware ADS-B
Sun 05:57:43 AM 53.9360 0.5140 302° West 464 534 32,000 -1,765 Level FlightAware ADS-B
Sun 05:58:03 AM 53.9646 0.4314 302° West 496 571 30,500  Descending FlightAware UK
Sun 05:58:28 AM 53.9870 0.3680 302° West 463 533 32,000  Climbing FlightAware ADS-B
Sun 05:58:45 AM 54.0104 0.3001 302° West 496 571 30,500 -2,571 Descending FlightAware UK
Sun 05:59:03 AM 54.0323 0.2465 305° West 494 568 30,500 3,913 Level FlightAware UK
Sun 05:59:08 AM 54.0360 0.2380 305° West 472 543 32,000  Climbing FlightAware ADS-B
Sun 05:59:33 AM 54.0747 0.1601 305° West 498 573 30,500  Descending FlightAware UK
Sun 05:59:53 AM 54.0990 0.1160 305° West 484 557 32,000  Climbing FlightAware ADS-B
Sun 06:00:15 AM 54.1380 0.0429 305° West 498 573 30,500  Descending FlightAware UK
Sun 06:00:33 AM 54.1630 -0.0040 305° West 482 555 32,000 1,552 Climbing FlightAware ADS-B
Sun 06:01:13 AM 54.2210 -0.1100 313° West 483 556 32,000 -1,385 Level FlightAware ADS-B
Sun 06:01:38 AM 54.2642 -0.1922 313° West 496 571 30,500  Descending FlightAware UK
Sun 06:01:48 AM 54.2750 -0.2120 313° West 484 557 32,000  Climbing FlightAware ADS-B
Sun 06:02:08 AM 54.3091 -0.2772 313° West 496 571 30,500 -2,368 Descending FlightAware UK
Sun 06:02:26 AM 54.3357 -0.3276 312° West 494 568 30,500 3,600 Level FlightAware UK
Sun 06:02:33 AM 54.3380 -0.3320 312° West 480 552 32,000  Climbing FlightAware ADS-B
Sun 06:02:50 AM 54.3713 -0.3953 312° West 496 571 30,500  Descending FlightAware UK
Sun 06:03:13 AM 54.4010 -0.4510 312° West 480 552 32,000  Climbing FlightAware ADS-B
Sun 06:03:38 AM 54.4420 -0.5302 312° West 494 568 30,500  Descending FlightAware UK
Sun 06:03:53 AM 54.4590 -0.5630 312° West 482 555 32,000  Climbing FlightAware ADS-B
Sun 06:04:14 AM 54.4954 -0.6326 312° West 496 571 30,500  Descending FlightAware UK
Sun 06:04:38 AM 54.5270 -0.6950 312° West 481 554 32,000  Climbing FlightAware ADS-B
Sun 06:04:56 AM 54.5534 -0.7576 312° West 496 571 30,500  Descending FlightAware UK
Sun 06:05:18 AM 54.5750 -0.8150 312° West 471 542 32,000  Climbing FlightAware ADS-B
Sun 06:05:50 AM 54.6171 -0.9274 312° West 496 571 30,500  Descending FlightAware UK
Sun 06:06:03 AM 54.6280 -0.9560 312° West 472 543 32,000  Climbing FlightAware ADS-B
Sun 06:06:26 AM 54.6594 -1.0406 312° West 496 571 30,500  Descending FlightAware UK
Sun 06:06:43 AM 54.6780 -1.0900 312° West 475 547 32,000  Climbing FlightAware ADS-B
Sun 06:07:14 AM 54.7169 -1.1918 312° West 500 575 30,500  Descending FlightAware UK
Sun 06:07:23 AM 54.7270 -1.2170 312° West 475 547 32,000 1,667 Climbing FlightAware ADS-B
Sun 06:08:08 AM 54.7790 -1.3540 303° West 473 544 32,000 -1,429 Level FlightAware ADS-B
Sun 06:08:26 AM 54.8039 -1.4190 303° West 492 566 30,500  Descending FlightAware UK
Sun 06:08:48 AM 54.8280 -1.4810 303° West 474 545 32,000  Climbing FlightAware ADS-B
Sun 06:09:08 AM 54.8550 -1.5515 303° West 496 571 30,500 -2,368 Descending FlightAware UK
Sun 06:09:26 AM 54.8813 -1.6047 311° West 496 571 30,500 4,500 Level FlightAware UK
Sun 06:09:28 AM 54.8810 -1.6050 311° West 491 565 32,000  Climbing FlightAware ADS-B
Sun 06:09:43 AM 54.9092 -1.6557 311° West 496 571 30,500  Descending FlightAware UK
Sun 06:10:13 AM 54.9500 -1.7280 311° West 495 570 32,000  Climbing FlightAware ADS-B
Sun 06:10:31 AM 54.9852 -1.7920 311° West 494 568 30,500  Descending FlightAware UK
Sun 06:10:53 AM 55.0140 -1.8430 311° West 499 574 32,000  Climbing FlightAware ADS-B
Sun 06:11:31 AM 55.0819 -1.9639 311° West 496 571 30,500  Descending FlightAware UK
Sun 06:11:38 AM 55.0890 -1.9760 311° West 498 573 32,000  Climbing FlightAware ADS-B
Sun 06:11:55 AM 55.1158 -2.0377 311° West 494 568 30,500  Descending FlightAware UK
Sun 06:12:18 AM 55.1410 -2.1020 311° West 481 554 32,000  Climbing FlightAware ADS-B
Sun 06:12:37 AM 55.1636 -2.1745 311° West 494 568 30,500 -2,432 Descending FlightAware UK
Sun 06:12:55 AM 55.1798 -2.2347 295° West 492 566 30,500 4,286 Level FlightAware UK
Sun 06:12:58 AM 55.1800 -2.2370 295° West 460 529 32,000  Climbing FlightAware ADS-B
Sun 06:13:31 AM 55.2117 -2.3555 295° West 492 566 30,500  Descending FlightAware UK
Sun 06:13:43 AM 55.2190 -2.3820 295° West 466 536 32,000  Climbing FlightAware ADS-B
Sun 06:14:07 AM 55.2467 -2.4783 295° West 496 571 30,500  Descending FlightAware UK
Sun 06:14:23 AM 55.2590 -2.5190 295° West 472 543 32,000  Climbing FlightAware ADS-B
Sun 06:14:49 AM 55.2883 -2.6204 295° West 502 578 30,500  Descending FlightAware UK
Sun 06:15:08 AM 55.3050 -2.6770 295° West 471 542 32,000  Climbing FlightAware ADS-B
Sun 06:15:31 AM 55.3303 -2.7627 295° West 502 578 30,500  Descending FlightAware UK
Sun 06:15:48 AM 55.3440 -2.8100 295° West 465 535 32,000 1,452 Climbing FlightAware ADS-B
Sun 06:16:33 AM 55.3870 -2.9570 297° West 461 531 32,000 -1,475 Level FlightAware ADS-B
Sun 06:16:49 AM 55.4058 -3.0229 297° West 496 571 30,500 -2,647 Descending FlightAware UK
Sun 06:17:07 AM 55.4229 -3.0829 297° West 496 571 30,500 3,750 Level FlightAware UK
Sun 06:17:13 AM 55.4270 -3.0960 297° West 460 529 32,000  Climbing FlightAware ADS-B
Sun 06:17:31 AM 55.4455 -3.1624 297° West 496 571 30,500 -2,500 Descending FlightAware UK
Sun 06:17:49 AM 55.4625 -3.2226 297° West 496 571 30,500 4,091 Level FlightAware UK
Sun 06:17:53 AM 55.4570 -3.2040 297° West 460 529 32,000  Climbing FlightAware ADS-B
Sun 06:18:31 AM 55.5039 -3.3622 297° West 496 571 30,500  Descending FlightAware UK
Sun 06:18:33 AM 55.4920 -3.3250 297° West 462 532 32,000  Climbing FlightAware ADS-B
Sun 06:19:01 AM 55.5382 -3.4600 297° West 494 568 30,500  Descending FlightAware UK
Sun 06:19:13 AM 55.5420 -3.4690 297° West 473 544 32,000  Climbing FlightAware ADS-B
Sun 06:19:31 AM 55.5713 -3.5582 297° West 492 566 30,500 -2,500 Descending FlightAware UK
Sun 06:19:49 AM 55.5909 -3.6176 300° West 492 566 30,500 2,813 Level FlightAware UK
Sun 06:20:03 AM 55.5950 -3.6290 300° West 469 540 32,000  Climbing FlightAware ADS-B
Sun 06:20:31 AM 55.6374 -3.7555 300° West 494 568 30,500  Descending FlightAware UK
Sun 06:20:58 AM 55.6540 -3.8040 300° West 472 543 32,000  Climbing FlightAware ADS-B
Sun 06:21:13 AM 55.6848 -3.8946 300° West 492 566 30,500 -2,727 Descending FlightAware UK
Sun 06:21:31 AM 55.7053 -3.9543 301° West 496 571 30,500 4,500 Level FlightAware UK
Sun 06:21:33 AM 55.6990 -3.9350 301° West 475 547 32,000  Climbing FlightAware ADS-B
Sun 06:21:55 AM 55.7325 -4.0343 301° West 498 573 30,500 -1,500 Descending FlightAware UK
Sun 06:22:13 AM 55.7530 -4.0946 301° West 498 573 31,000 4,714 Climbing FlightAware UK
Sun 06:22:23 AM 55.7580 -4.1090 301° West 475 547 32,700 732 Climbing FlightAware ADS-B
Sun 06:22:54 AM 55.8001 -4.2339 301° West 498 573 31,500 450 Descending FlightAware UK
Sun 06:23:03 AM 55.8030 -4.2430 301° West 472 543 33,000 -143 Climbing FlightAware ADS-B
Sun 06:23:36 AM 55.8468 -4.3729 301° West 494 568 31,400  Descending FlightAware UK
Sun 06:23:43 AM 55.8480 -4.3760 301° West 471 542 33,000 1,846 Climbing FlightAware ADS-B
Sun 06:24:28 AM 55.8890 -4.5200 297° West 457 526 33,000 -1,385 Level FlightAware ADS-B
Sun 06:24:48 AM 55.9123 -4.6178 297° West 492 566 31,500  Descending FlightAware UK
Sun 06:25:08 AM 55.9210 -4.6570 297° West 449 517 33,000 1,385 Climbing FlightAware ADS-B
Sun 06:25:53 AM 55.9560 -4.8200 291° West 452 520 33,000 -1,286 Level FlightAware ADS-B
Sun 06:26:18 AM 55.9807 -4.9283 291° West 490 564 31,500  Descending FlightAware UK
Sun 06:26:33 AM 55.9880 -4.9620 291° West 452 520 33,000  Climbing FlightAware ADS-B
Sun 06:26:48 AM 56.0042 -5.0320 291° West 490 564 31,500  Descending FlightAware UK
Sun 06:27:18 AM 56.0220 -5.1120 291° West 456 525 33,000  Climbing FlightAware ADS-B
Sun 06:27:48 AM 56.0518 -5.2408 291° West 490 564 31,500  Descending FlightAware UK
Sun 06:27:58 AM 56.0530 -5.2460 291° West 457 526 33,000  Climbing FlightAware ADS-B
Sun 06:28:18 AM 56.0754 -5.3451 291° West 494 568 31,500 -2,368 Descending FlightAware UK
Sun 06:28:36 AM 56.0894 -5.4079 292° West 490 564 31,500 4,500 Level FlightAware UK
Sun 06:28:38 AM 56.0880 -5.4020 292° West 453 521 33,000  Climbing FlightAware ADS-B
Sun 06:28:54 AM 56.1033 -5.4706 292° West 488 562 31,500 -2,647 Descending FlightAware UK
Sun 06:29:12 AM 56.1171 -5.5332 292° West 488 562 31,500 3,750 Level FlightAware UK
Sun 06:29:18 AM 56.1180 -5.5390 292° West 454 522 33,000  Climbing FlightAware ADS-B
Sun 06:29:36 AM 56.1355 -5.6168 292° West 490 564 31,500 -2,143 Descending FlightAware UK
Sun 06:30:00 AM 56.1540 -5.7008 292° West 494 568 31,500 3,333 Level FlightAware UK
Sun 06:30:03 AM 56.1530 -5.6990 292° West 456 525 33,000  Climbing FlightAware ADS-B
Sun 06:30:24 AM 56.1724 -5.7852 292° West 496 571 31,500  Descending FlightAware UK
Sun 06:30:43 AM 56.1830 -5.8350 292° West 456 525 33,000  Climbing FlightAware ADS-B
Sun 06:31:06 AM 56.2045 -5.9332 292° West 496 571 31,500 -1,915 Descending FlightAware UK
Sun 06:31:30 AM 56.2227 -6.0177 291° West 494 568 31,500  Level FlightAware UK
Sun 06:31:48 AM 56.2363 -6.0810 291° West 492 566 31,500  Level FlightAware UK
Sun 06:32:06 AM 56.2499 -6.1443 291° West 490 564 31,500  Level FlightAware UK
Sun 06:32:24 AM 56.2635 -6.2076 291° West 490 564 31,500  Level FlightAware UK
Sun 06:32:48 AM 56.2816 -6.2923 291° West 490 564 31,500  Level FlightAware UK
Sun 06:33:06 AM 56.2951 -6.3564 291° West 490 564 31,500  Level FlightAware UK
Sun 06:33:24 AM 56.3086 -6.4205 291° West 490 564 31,500  Level FlightAware UK
Sun 06:33:42 AM 56.3221 -6.4840 291° West 490 564 31,500 3,750 Level FlightAware UK
Sun 06:33:48 AM 56.3230 -6.4880 291° West 458 527 33,000  Climbing FlightAware ADS-B
Sun 06:34:06 AM 56.3401 -6.5697 291° West 490 564 31,500 -2,500 Descending FlightAware UK
Sun 06:34:24 AM 56.3537 -6.6340 291° West 490 564 31,500 4,091 Level FlightAware UK
Sun 06:34:28 AM 56.3530 -6.6300 291° West 459 528 33,000  Climbing FlightAware ADS-B
Sun 06:34:48 AM 56.3716 -6.7198 291° West 492 566 31,500  Descending FlightAware UK
Sun 06:35:03 AM 56.3790 -6.7540 291° West 462 532 33,000  Climbing FlightAware ADS-B
Sun 06:35:18 AM 56.3941 -6.8272 291° West 490 564 31,500 -2,727 Descending FlightAware UK
Sun 06:35:36 AM 56.4073 -6.8927 290° West 492 566 31,500 3,600 Level FlightAware UK
Sun 06:35:43 AM 56.4080 -6.8980 290° West 463 533 33,000  Climbing FlightAware ADS-B
Sun 06:36:00 AM 56.4252 -6.9795 290° West 488 562 31,500 -2,571 Descending FlightAware UK
Sun 06:36:18 AM 56.4386 -7.0449 290° West 488 562 31,500 3,913 Level FlightAware UK
Sun 06:36:23 AM 56.4380 -7.0420 290° West 466 536 33,000  Climbing FlightAware ADS-B
Sun 06:36:42 AM 56.4563 -7.1325 290° West 486 559 31,500 -2,432 Descending FlightAware UK
Sun 06:37:00 AM 56.4699 -7.1989 290° West 490 564 31,500 4,286 Level FlightAware UK
Sun 06:37:03 AM 56.4700 -7.2010 290° West 473 544 33,000  Climbing FlightAware ADS-B
Sun 06:37:18 AM 56.4837 -7.2659 290° West 492 566 31,500 -2,727 Descending FlightAware UK
Sun 06:37:36 AM 56.4971 -7.3331 290° West 494 568 31,500 3,000 Level FlightAware UK
Sun 06:37:48 AM 56.5040 -7.3680 290° West 476 548 33,000  Climbing FlightAware ADS-B
Sun 06:38:06 AM 56.5199 -7.4447 290° West 494 568 31,500 -2,500 Descending FlightAware UK
Sun 06:38:24 AM 56.5335 -7.5122 290° West 494 568 31,500 4,091 Level FlightAware UK
Sun 06:38:28 AM 56.5340 -7.5150 290° West 478 550 33,000  Climbing FlightAware ADS-B
Sun 06:38:48 AM 56.5513 -7.6025 290° West 496 571 31,500 -2,368 Descending FlightAware UK
Sun 06:39:06 AM 56.5648 -7.6704 290° West 498 573 31,500 4,500 Level FlightAware UK
Sun 06:39:08 AM 56.5640 -7.6640 290° West 479 551 33,000  Climbing FlightAware ADS-B
Sun 06:39:24 AM 56.5782 -7.7376 290° West 496 571 31,500 -2,647 Descending FlightAware UK
Sun 06:39:42 AM 56.5917 -7.8056 290° West 498 573 31,500 3,103 Level FlightAware UK
Sun 06:39:53 AM 56.5980 -7.8360 290° West 479 551 33,000  Climbing FlightAware ADS-B
Sun 06:40:12 AM 56.6140 -7.9191 290° West 498 573 31,500 -2,432 Descending FlightAware UK
Sun 06:40:30 AM 56.6274 -7.9870 290° West 496 571 31,500 4,286 Level FlightAware UK
Sun 06:40:33 AM 56.6270 -7.9860 290° West 478 550 33,000  Climbing FlightAware ADS-B
Sun 06:40:48 AM 56.6407 -8.0550 290° West 496 571 31,500 -2,727 Descending FlightAware UK
Sun 06:41:06 AM 56.6537 -8.1231 289° West 494 568 31,500 3,000 Level FlightAware UK
Sun 06:41:18 AM 56.6600 -8.1560 289° West 479 551 33,000  Climbing FlightAware ADS-B
Sun 06:41:36 AM 56.6757 -8.2365 289° West 494 568 31,500 -2,500 Descending FlightAware UK
Sun 06:41:54 AM 56.6888 -8.3048 289° West 494 568 31,500 4,091 Level FlightAware UK
Sun 06:41:58 AM 56.6890 -8.3080 289° West 478 550 33,000  Climbing FlightAware ADS-B
Sun 06:42:18 AM 56.7063 -8.3961 289° West 492 566 31,500 -2,368 Descending FlightAware UK
Sun 06:42:36 AM 56.7194 -8.4648 289° West 492 566 31,500 4,500 Level FlightAware UK
Sun 06:42:38 AM 56.7180 -8.4570 289° West 479 551 33,000  Climbing FlightAware ADS-B
Sun 06:42:54 AM 56.7327 -8.5337 289° West 492 566 31,500 -2,647 Descending FlightAware UK
Sun 06:43:12 AM 56.7457 -8.6029 289° West 496 571 31,500 3,103 Level FlightAware UK
Sun 06:43:23 AM 56.7510 -8.6320 289° West 486 559 33,000  Climbing FlightAware ADS-B
Sun 06:43:42 AM 56.7676 -8.7192 289° West 500 575 31,500 -2,432 Descending FlightAware UK
Sun 06:44:00 AM 56.7808 -8.7889 289° West 500 575 31,500 4,286 Level FlightAware UK
Sun 06:44:03 AM 56.7790 -8.7820 289° West 482 555 33,000  Climbing FlightAware ADS-B
Sun 06:44:18 AM 56.7938 -8.8584 289° West 500 575 31,500 -2,727 Descending FlightAware UK
Sun 06:44:36 AM 56.8065 -8.9272 289° West 500 575 31,500 3,000 Level FlightAware UK
Sun 06:44:48 AM 56.8110 -8.9530 289° West 482 555 33,000 1,731 Climbing FlightAware ADS-B
Sun 06:45:28 AM 56.8400 -9.1060 289° West 480 552 33,000  Level FlightAware ADS-B
Sun 06:46:08 AM 56.8680 -9.2610 288° West 479 551 33,000  Level FlightAware ADS-B
Sun 06:46:53 AM 56.8990 -9.4340 288° West 477 549 33,000  Level FlightAware ADS-B
Sun 06:47:33 AM 56.9270 -9.5900 288° West 475 547 33,000  Level FlightAware ADS-B
Sun 06:48:18 AM 56.9570 -9.7590 288° West 474 545 33,000  Level FlightAware ADS-B
Sun 06:48:53 AM 56.9820 -9.8950 289° West 475 547 33,000  Level FlightAware ADS-B
Sun 06:49:38 AM 57.0160 -10.0640 290° West 480 552 33,000  Level FlightAware ADS-B
Sun 06:50:23 AM 57.0580 -10.2330 295° West 482 555 33,000  Level FlightAware ADS-B
Sun 06:51:03 AM 57.1010 -10.3760 299° West 497 572 33,000  Level FlightAware ADS-B
Sun 06:51:43 AM 57.1450 -10.5230 299° West 494 568 33,000  Level FlightAware ADS-B
Sun 06:52:28 AM 57.1900 -10.6930 296° West 492 566 33,000  Level FlightAware ADS-B
Sun 06:53:08 AM 57.2280 -10.8460 295° West 489 563 33,000  Level FlightAware ADS-B
Sun 06:53:43 AM 57.2620 -10.9850 294° West 489 563 33,000  Level FlightAware ADS-B
Sun 06:54:23 AM 57.3000 -11.1410 294° West 489 563 33,000  Level FlightAware ADS-B
Sun 06:55:03 AM 57.3360 -11.2950 293° West 492 566 33,000  Level FlightAware ADS-B
Sun 06:55:43 AM 57.3720 -11.4450 294° West 493 567 33,000  Level FlightAware ADS-B
Sun 06:56:33 AM 57.4180 -11.6440 293° West 494 568 33,000  Level FlightAware ADS-B
Sun 06:58:03 AM 57.4960 -11.9770 294° West 494 568 33,000  Level FlightAware ADS-B
Sun 06:58:48 AM 57.5330 -12.1390 293° West 494 568 33,000  Level FlightAware ADS-B
Sun 06:59:28 AM 57.5630 -12.2730 293° West 494 568 33,000  Level FlightAware ADS-B
Sun 07:00:08 AM 57.5930 -12.4060 293° West 494 568 33,000  Level FlightAware ADS-B
Sun 07:00:48 AM 57.6240 -12.5400 293° West 494 568 33,000  Level FlightAware ADS-B
Sun 07:01:28 AM 57.6540 -12.6730 293° West 494 568 33,000  Level FlightAware ADS-B
Sun 07:02:18 AM 57.6920 -12.8400 293° West 494 568 33,000  Level FlightAware ADS-B
Sun 07:02:58 AM 57.7220 -12.9740 293° West 494 568 33,000  Level FlightAware ADS-B
Sun 07:03:38 AM 57.7530 -13.1080 293° West 494 568 33,000  Level FlightAware ADS-B
Sun 07:04:18 AM 57.7830 -13.2430 293° West 494 568 33,000  Level FlightAware ADS-B
Sun 07:04:58 AM 57.8130 -13.3770 293° West 494 568 33,000  Level FlightAware ADS-B
Sun 07:05:48 AM 57.8510 -13.5450 293° West 494 568 33,000  Level FlightAware ADS-B
Sun 07:06:28 AM 57.8820 -13.6790 294° West 494 568 33,000  Level FlightAware ADS-B
Sun 07:07:08 AM 57.9120 -13.8140 293° West 494 568 33,000  Level FlightAware ADS-B
Sun 07:07:48 AM 57.9420 -13.9490 293° West 494 568 33,000  Level FlightAware ADS-B
Sun 07:10:00 AM 58.0445 -14.4571 291° West  Level FlightAware Approximate
Sun 07:11:00 AM 58.0904 -14.6890 291° West  Level FlightAware Approximate
Sun 07:12:00 AM 58.1359 -14.9215 290° West  Level FlightAware Approximate
Sun 07:13:00 AM 58.1810 -15.1546 290° West  Level FlightAware Approximate
Sun 07:14:00 AM 58.2256 -15.3883 290° West  Level FlightAware Approximate
Sun 07:15:00 AM 58.2698 -15.6225 290° West  Level FlightAware Approximate
Sun 07:16:00 AM 58.3136 -15.8574 290° West  Level FlightAware Approximate
Sun 07:17:00 AM 58.3569 -16.0927 289° West  Level FlightAware Approximate
Sun 07:18:00 AM 58.3998 -16.3287 289° West  Level FlightAware Approximate
Sun 07:19:00 AM 58.4423 -16.5652 289° West  Level FlightAware Approximate
Sun 07:20:00 AM 58.4844 -16.8023 289° West  Level FlightAware Approximate
Sun 07:21:00 AM 58.5260 -17.0399 289° West  Level FlightAware Approximate
Sun 07:22:00 AM 58.5671 -17.2782 288° West  Level FlightAware Approximate
Sun 07:23:00 AM 58.6078 -17.5169 288° West  Level FlightAware Approximate
Sun 07:24:00 AM 58.6481 -17.7563 288° West  Level FlightAware Approximate
Sun 07:25:00 AM 58.6880 -17.9961 288° West  Level FlightAware Approximate
Sun 07:26:00 AM 58.7273 -18.2366 288° West  Level FlightAware Approximate
Sun 07:27:00 AM 58.7663 -18.4775 287° West  Level FlightAware Approximate
Sun 07:28:00 AM 58.8048 -18.7190 287° West  Level FlightAware Approximate
Sun 07:29:00 AM 58.8428 -18.9611 287° West  Level FlightAware Approximate
Sun 07:30:00 AM 58.8804 -19.2036 287° West  Level FlightAware Approximate
Sun 07:31:00 AM 58.9175 -19.4467 287° West  Level FlightAware Approximate
Sun 07:31:00 AM 59.0000 -20.0000 285° West 477 549 33,000  Level ETMS Enhanced Traffic Management System
Sun 07:32:00 AM 58.9542 -19.6903 286° West  Level FlightAware Approximate
Sun 07:33:00 AM 58.9904 -19.9345 286° West  Level FlightAware Approximate
Sun 07:34:00 AM 59.0251 -20.1793 285° West  Level FlightAware Approximate
Sun 07:35:00 AM 59.0591 -20.4251 285° West  Level FlightAware Approximate
Sun 07:36:00 AM 59.0925 -20.6714 285° West  Level FlightAware Approximate
Sun 07:37:00 AM 59.2029 -21.4969 284° West 477 549 33,000  Level FlightAware Transoceanic
Sun 07:38:00 AM 59.2351 -21.7481 284° West 477 549 33,000  Level FlightAware Transoceanic
Sun 07:39:00 AM 59.2667 -21.9998 284° West 477 549 33,000  Level FlightAware Transoceanic
Sun 07:40:00 AM 59.2979 -22.2519 283° West 477 549 33,000  Level FlightAware Transoceanic
Sun 07:41:00 AM 59.3286 -22.5045 283° West 477 549 33,000  Level FlightAware Transoceanic
Sun 07:42:00 AM 59.3588 -22.7575 283° West 477 549 33,000  Level FlightAware Transoceanic
Sun 07:43:00 AM 59.3885 -23.0110 283° West 477 549 33,000  Level FlightAware Transoceanic
Sun 07:44:00 AM 59.4177 -23.2649 283° West 477 549 33,000  Level FlightAware Transoceanic
Sun 07:45:00 AM 59.4464 -23.5193 282° West 477 549 33,000  Level FlightAware Transoceanic
Sun 07:46:00 AM 59.4746 -23.7741 282° West 477 549 33,000  Level FlightAware Transoceanic
Sun 07:47:00 AM 59.5023 -24.0293 282° West 477 549 33,000  Level FlightAware Transoceanic
Sun 07:48:00 AM 59.5295 -24.2849 282° West 477 549 33,000  Level FlightAware Transoceanic
Sun 07:49:00 AM 59.5563 -24.5409 282° West 477 549 33,000  Level FlightAware Transoceanic
Sun 07:50:00 AM 59.5825 -24.7974 281° West 477 549 33,000  Level FlightAware Transoceanic
Sun 07:51:00 AM 59.6082 -25.0542 281° West 477 549 33,000  Level FlightAware Transoceanic
Sun 07:52:00 AM 59.6334 -25.3114 281° West 477 549 33,000  Level FlightAware Transoceanic
Sun 07:53:00 AM 59.6581 -25.5690 281° West 477 549 33,000  Level FlightAware Transoceanic
Sun 07:54:00 AM 59.6824 -25.8270 280° West 477 549 33,000  Level FlightAware Transoceanic
Sun 07:55:00 AM 59.7061 -26.0854 280° West 477 549 33,000  Level FlightAware Transoceanic
Sun 07:56:00 AM 59.7293 -26.3441 280° West 477 549 33,000  Level FlightAware Transoceanic
Sun 07:57:00 AM 59.7519 -26.6031 280° West 477 549 33,000  Level FlightAware Transoceanic
Sun 07:58:00 AM 59.7741 -26.8626 280° West 477 549 33,000  Level FlightAware Transoceanic
Sun 07:59:00 AM 59.7958 -27.1223 279° West 477 549 33,000  Level FlightAware Transoceanic
Sun 08:00:00 AM 59.8169 -27.3824 279° West 477 549 33,000  Level FlightAware Transoceanic
Sun 08:01:00 AM 59.8376 -27.6428 279° West 477 549 33,000  Level FlightAware Transoceanic
Sun 08:02:00 AM 59.8577 -27.9035 279° West 477 549 33,000  Level FlightAware Transoceanic
Sun 08:03:00 AM 59.8773 -28.1646 278° West 477 549 33,000  Level FlightAware Transoceanic
Sun 08:04:00 AM 59.8964 -28.4259 278° West 477 549 33,000  Level FlightAware Transoceanic
Sun 08:05:00 AM 59.9150 -28.6876 278° West 477 549 33,000  Level FlightAware Transoceanic
Sun 08:06:00 AM 59.9330 -28.9495 278° West 477 549 33,000  Level FlightAware Transoceanic
Sun 08:07:00 AM 59.9505 -29.2117 277° West 477 549 33,000  Level FlightAware Transoceanic
Sun 08:08:00 AM 59.9675 -29.4742 277° West 477 549 33,000  Level FlightAware Transoceanic
Sun 08:09:00 AM 59.9840 -29.7370 277° West 477 549 33,000  Level FlightAware Transoceanic
Sun 08:10:00 AM 59.9998 -29.9969 277° West  Level FlightAware Approximate
Sun 08:11:00 AM 60.0155 -30.2570 277° West  Level FlightAware Approximate
Sun 08:12:00 AM 60.0094 -30.2550 274° West  Level FlightAware Approximate
Sun 08:13:00 AM 60.0185 -30.5163 274° West  Level FlightAware Approximate
Sun 08:14:00 AM 60.0272 -30.7778 274° West  Level FlightAware Approximate
Sun 08:15:00 AM 60.0353 -31.0394 274° West  Level FlightAware Approximate
Sun 08:16:00 AM 60.0428 -31.3012 273° West  Level FlightAware Approximate
Sun 08:17:00 AM 60.0499 -31.5631 273° West  Level FlightAware Approximate
Sun 08:18:00 AM 60.0564 -31.8250 273° West  Level FlightAware Approximate
Sun 08:19:00 AM 60.0625 -32.0871 273° West  Level FlightAware Approximate
Sun 08:20:00 AM 60.0680 -32.3493 273° West  Level FlightAware Approximate
Sun 08:21:00 AM 60.0730 -32.6115 272° West  Level FlightAware Approximate
Sun 08:22:00 AM 60.0774 -32.8739 272° West  Level FlightAware Approximate
Sun 08:23:00 AM 60.0814 -33.1362 272° West  Level FlightAware Approximate
Sun 08:24:00 AM 60.0848 -33.3987 272° West  Level FlightAware Approximate
Sun 08:25:00 AM 60.0877 -33.6612 271° West  Level FlightAware Approximate
Sun 08:26:00 AM 60.0901 -33.9237 271° West  Level FlightAware Approximate
Sun 08:27:00 AM 60.0920 -34.1863 271° West  Level FlightAware Approximate
Sun 08:28:00 AM 60.0933 -34.4489 271° West  Level FlightAware Approximate
Sun 08:29:00 AM 60.0942 -34.7115 270° West  Level FlightAware Approximate
Sun 08:30:00 AM 60.0945 -34.9742 270° West  Level FlightAware Approximate
Sun 08:31:00 AM 60.0943 -35.2368 270° West  Level FlightAware Approximate
Sun 08:32:00 AM 60.0936 -35.4994 270° West  Level FlightAware Approximate
Sun 08:33:00 AM 60.0923 -35.7620 270° West  Level FlightAware Approximate
Sun 08:34:00 AM 60.0905 -36.0246 269° West  Level FlightAware Approximate
Sun 08:34:29 AM 60.0833 -36.3500 268° West 500 575 33,000  Level Gander Center
Sun 08:35:00 AM 60.0882 -36.2872 269° West  Level FlightAware Approximate
Sun 08:35:29 AM 60.0833 -36.6333 270° West 500 575 33,000  Level Gander Center
Sun 08:36:00 AM 60.0854 -36.5497 269° West  Level FlightAware Approximate
Sun 08:36:29 AM 60.0833 -36.9167 270° West 500 575 33,000  Level Gander Center
Sun 08:37:00 AM 60.0821 -36.8121 269° West  Level FlightAware Approximate
Sun 08:37:29 AM 60.0833 -37.1667 270° West 500 575 33,000  Level Gander Center
Sun 08:38:00 AM 60.0783 -37.0745 268° West  Level FlightAware Approximate
Sun 08:38:29 AM 60.0833 -37.4500 270° West 500 575 33,000  Level Gander Center
Sun 08:39:00 AM 60.0739 -37.3369 268° West  Level FlightAware Approximate
Sun 08:39:29 AM 60.0833 -37.7167 270° West 500 575 33,000  Level Gander Center
Sun 08:40:29 AM 60.0667 -37.9667 262° West 500 575 33,000  Level Gander Center
Sun 08:41:29 AM 60.0667 -38.2500 270° West 500 575 33,000  Level Gander Center
Sun 08:42:29 AM 60.0667 -38.5333 270° West 490 564 33,000  Level Gander Center
Sun 08:43:29 AM 60.0333 -38.8000 256° West 490 564 33,000  Level Gander Center
Sun 08:44:29 AM 60.0333 -39.0833 270° West 490 564 33,000  Level Gander Center
Sun 08:45:29 AM 60.0333 -39.3667 270° West 490 564 33,000  Level Gander Center
Sun 08:46:29 AM 60.0167 -39.6167 263° West 490 564 33,000  Level Gander Center
Sun 08:47:29 AM 60.0167 -39.8833 270° West 490 564 33,000  Level Gander Center
Sun 08:48:29 AM 59.9667 -40.1667 251° West 500 575 33,000  Level Gander Center
Sun 08:49:29 AM 59.9333 -40.4167 255° West 500 575 33,000  Level Gander Center
Sun 08:50:29 AM 59.9000 -40.6833 256° West 510 587 33,000  Level Gander Center
Sun 08:51:29 AM 59.8500 -40.9500 250° West 510 587 33,000  Level Gander Center
Sun 08:52:29 AM 59.8000 -41.1833 247° West 510 587 33,000  Level Gander Center
Sun 08:53:29 AM 59.7500 -41.4500 250° West 500 575 33,000  Level Gander Center
Sun 08:54:29 AM 59.7167 -41.7167 256° West 500 575 33,000  Level Gander Center
Sun 08:55:29 AM 59.6833 -41.9833 256° West 500 575 33,000  Level Gander Center
Sun 08:56:29 AM 59.6333 -42.2500 250° West 510 587 33,000  Level Gander Center
Sun 08:57:29 AM 59.5833 -42.5000 249° West 510 587 33,000  Level Gander Center
Sun 08:58:29 AM 59.5500 -42.7667 256° West 510 587 33,000  Level Gander Center
Sun 08:59:29 AM 59.5000 -43.0167 249° West 510 587 33,000  Level Gander Center
Sun 09:00:29 AM 59.4500 -43.2833 250° West 510 587 33,000  Level Gander Center
Sun 09:01:29 AM 59.4000 -43.5500 250° West 510 587 33,000  Level Gander Center
Sun 09:02:29 AM 59.3500 -43.8000 249° West 510 587 33,000  Level Gander Center
Sun 09:03:29 AM 59.3000 -44.0667 250° West 510 587 33,000  Level Gander Center
Sun 09:04:29 AM 59.2667 -44.3167 255° West 500 575 33,000  Level Gander Center
Sun 09:05:29 AM 59.2000 -44.5833 244° Southwest 500 575 33,000  Level Gander Center
Sun 09:06:29 AM 59.1500 -44.8000 246° West 490 564 33,000  Level Gander Center
Sun 09:07:29 AM 59.1167 -45.0500 256° West 480 552 33,000  Level Gander Center
Sun 09:08:29 AM 59.0667 -45.3000 249° West 490 564 33,000  Level Gander Center
Sun 09:09:29 AM 59.0000 -45.5667 244° Southwest 490 564 33,000  Level Gander Center
Sun 09:10:29 AM 58.9667 -45.7833 253° West 490 564 33,000  Level Gander Center
Sun 09:11:29 AM 58.9000 -46.0333 243° Southwest 490 564 33,000  Level Gander Center
Sun 09:12:29 AM 58.8667 -46.2833 256° West 490 564 33,000  Level Gander Center
Sun 09:13:29 AM 58.8000 -46.5000 239° Southwest 490 564 33,000  Level Gander Center
Sun 09:14:29 AM 58.7500 -46.7500 249° West 480 552 33,000  Level Gander Center
Sun 09:15:29 AM 58.7167 -47.0000 256° West 480 552 33,000  Level Gander Center
Sun 09:16:29 AM 58.6500 -47.2167 239° Southwest 480 552 33,000  Level Gander Center
Sun 09:17:29 AM 58.6000 -47.4667 249° West 480 552 33,000  Level Gander Center
Sun 09:18:29 AM 58.5500 -47.7167 249° West 480 552 33,000  Level Gander Center
Sun 09:19:29 AM 58.5000 -47.9167 244° Southwest 480 552 33,000  Level Gander Center
Sun 09:20:29 AM 58.4500 -48.1667 249° West 480 552 33,000  Level Gander Center
Sun 09:21:29 AM 58.3833 -48.3833 240° Southwest 480 552 33,000  Level Gander Center
Sun 09:22:29 AM 58.3333 -48.6333 249° West 480 552 33,000  Level Gander Center
Sun 09:23:29 AM 58.2667 -48.8500 240° Southwest 480 552 33,000  Level Gander Center
Sun 09:24:29 AM 58.2333 -49.0833 255° West 480 552 33,000  Level Gander Center
Sun 09:25:29 AM 58.1667 -49.3333 243° Southwest 480 552 33,000  Level Gander Center
Sun 09:26:29 AM 58.1167 -49.5333 245° Southwest 480 552 33,000  Level Gander Center
Sun 09:27:29 AM 58.0500 -49.7833 243° Southwest 480 552 33,000  Level Gander Center
Sun 09:28:29 AM 58.0000 -49.9833 245° Southwest 480 552 33,000  Level Gander Center
Sun 09:29:29 AM 57.9667 -50.2500 257° West 480 552 33,000  Level Gander Center
Sun 09:30:29 AM 57.9333 -50.4833 255° West 480 552 33,000  Level Gander Center
Sun 09:31:29 AM 57.8833 -50.7167 248° West 480 552 33,000  Level Gander Center
Sun 09:32:29 AM 57.8500 -50.9500 255° West 480 552 33,000  Level Gander Center
Sun 09:33:29 AM 57.8000 -51.1833 248° West 480 552 33,000  Level Gander Center
Sun 09:34:29 AM 57.7500 -51.4167 248° West 480 552 33,000  Level Gander Center
Sun 09:35:29 AM 57.7167 -51.6833 257° West 480 552 33,000  Level Gander Center
Sun 09:37:00 AM 57.6929 -52.0492 263° West  Level FlightAware Approximate
Sun 09:44:00 AM 57.5179 -53.7190 256° West  Level FlightAware Approximate
Sun 09:45:00 AM 57.4839 -53.9522 255° West  Level FlightAware Approximate
Sun 09:46:00 AM 57.4495 -54.1850 255° West  Level FlightAware Approximate
Sun 09:46:25 AM 57.2333 -54.1833 254° West 490 564 33,000  Level Gander Center
Sun 09:47:00 AM 57.4147 -54.4173 255° West  Level FlightAware Approximate
Sun 09:47:25 AM 57.1667 -54.4167 242° Southwest 490 564 33,000  Level Gander Center
Sun 09:48:00 AM 57.3794 -54.6492 254° West  Level FlightAware Approximate
Sun 09:48:25 AM 57.1167 -54.6667 250° West 480 552 33,000  Level Gander Center
Sun 09:49:00 AM 57.3437 -54.8807 254° West  Level FlightAware Approximate
Sun 09:49:25 AM 57.0833 -54.8833 254° West 480 552 33,000  Level Gander Center
Sun 09:50:00 AM 57.3076 -55.1117 254° West  Level FlightAware Approximate
Sun 09:50:25 AM 57.0167 -55.0833 239° Southwest 490 564 33,000  Level Gander Center
Sun 09:51:00 AM 57.2711 -55.3422 254° West  Level FlightAware Approximate
Sun 09:51:25 AM 56.9833 -55.3000 254° West 450 518 33,000  Level Gander Center
Sun 09:52:25 AM 56.9167 -55.5667 245° Southwest 460 529 33,000  Level Gander Center
Sun 09:53:25 AM 56.8667 -55.8167 250° West 480 552 33,000  Level Gander Center
Sun 09:54:25 AM 56.8167 -56.0000 244° Southwest 470 541 33,000  Level Gander Center
Sun 09:55:25 AM 56.7833 -56.2500 256° West 440 506 33,000  Level Gander Center
Sun 09:56:25 AM 56.7500 -56.4667 254° West 480 552 33,000  Level Gander Center
Sun 09:57:25 AM 56.7000 -56.7167 250° West 440 506 33,000  Level Gander Center
Sun 09:58:25 AM 56.6667 -56.9667 256° West 500 575 33,000  Level Gander Center
Sun 09:59:25 AM 56.6167 -57.1833 247° West 490 564 33,000  Level Gander Center
Sun 10:00:25 AM 56.5833 -57.4000 254° West 470 541 33,000  Level Gander Center
Sun 10:01:25 AM 56.5333 -57.6500 250° West 480 552 33,000  Level Gander Center
Sun 10:02:25 AM 56.4833 -57.8667 247° West 480 552 33,000  Level Gander Center
Sun 10:03:25 AM 56.4500 -58.0833 255° West 480 552 33,000 500 Level Gander Center
Sun 10:04:25 AM 56.4000 -58.3333 250° West 480 552 34,000 1,000 Climbing Gander Center
Sun 10:05:25 AM 56.3500 -58.5333 246° West 480 552 35,000 500 Climbing Gander Center
Sun 10:06:25 AM 56.3167 -58.7833 257° West 490 564 35,000  Level Gander Center
Sun 10:07:01 AM 56.2833 -58.9000 243° Southwest 480 552 35,000  Level Gander Center
Sun 10:08:01 AM 56.2333 -59.1500 250° West 490 564 35,000  Level Gander Center
Sun 10:08:25 AM 56.2167 -59.2333 250° West 480 552 35,000  Level Gander Center
Sun 10:09:25 AM 56.1667 -59.4500 248° West 480 552 35,000  Level Gander Center
Sun 10:10:25 AM 56.1333 -59.7000 257° West 480 552 35,000  Level Gander Center
Sun 10:11:25 AM 56.0833 -59.9000 246° West 480 552 35,000  Level Gander Center
Sun 10:12:25 AM 56.0333 -60.1500 250° West 480 552 35,000  Level Gander Center
Sun 10:13:25 AM 55.9833 -60.3500 246° West 480 552 35,000  Level Gander Center
Sun 10:14:01 AM 55.9500 -60.5000 248° West 490 564 35,000  Level Gander Center
Sun 10:14:25 AM 55.9333 -60.6000 253° West 480 552 35,000  Level Gander Center
Sun 10:15:25 AM 55.8833 -60.8000 246° West 490 564 35,000  Level Gander Center
Sun 10:16:01 AM 55.8500 -60.9500 248° West 480 552 35,000  Level Gander Center
Sun 10:17:01 AM 55.8000 -61.1667 248° West 480 552 35,000  Level Gander Center
Sun 10:17:25 AM 55.7833 -61.2500 250° West 480 552 35,000  Level Gander Center
Sun 10:18:25 AM 55.7167 -61.4833 243° Southwest 480 552 35,000  Level Gander Center
Sun 10:19:25 AM 55.6833 -61.7000 255° West 480 552 35,000  Level Gander Center
Sun 10:20:25 AM 55.6333 -61.9000 246° West 480 552 35,000  Level Gander Center
Sun 10:21:25 AM 55.5833 -62.1333 249° West 470 541 35,000  Level Gander Center
Sun 10:22:01 AM 55.5500 -62.2500 243° Southwest 480 552 35,000  Level Gander Center
Sun 10:23:01 AM 55.5000 -62.4667 248° West 480 552 35,000  Level Gander Center
Sun 10:23:25 AM 55.4833 -62.5500 251° West 470 541 35,000  Level Gander Center
Sun 10:24:25 AM 55.4333 -62.7833 249° West 480 552 35,000  Level Gander Center
Sun 10:25:25 AM 55.3667 -62.9833 240° Southwest 480 552 35,000  Level Gander Center
Sun 10:26:25 AM 55.3167 -63.1833 246° West 480 552 35,000  Level Gander Center
Sun 10:27:25 AM 55.2667 -63.4167 249° West 480 552 35,000  Level Gander Center
Sun 10:28:25 AM 55.2167 -63.6167 246° West 490 564 35,000  Level Gander Center
Sun 10:29:25 AM 55.1500 -63.8500 244° Southwest 480 552 35,000  Level Gander Center
Sun 10:30:25 AM 55.0833 -64.0500 240° Southwest 490 564 35,000  Level Gander Center
Sun 10:31:25 AM 55.0500 -64.2833 256° West 490 564 35,000  Level Gander Center
Sun 10:32:25 AM 55.0000 -64.4833 247° West 480 552 35,000  Level Gander Center
Sun 10:33:25 AM 54.9333 -64.7167 244° Southwest 480 552 35,000  Level Gander Center
Sun 10:34:25 AM 54.8667 -64.9167 240° Southwest 480 552 35,000  Level Gander Center
Sun 10:35:25 AM 54.8167 -65.1167 247° West 480 552 35,000 250 Level Gander Center
Sun 10:36:25 AM 54.7667 -65.3333 248° West 480 552 35,500 500 Climbing Gander Center
Sun 10:37:25 AM 54.7000 -65.5333 240° Southwest 490 564 36,000 250 Climbing Gander Center
Sun 10:38:25 AM 54.6333 -65.7667 244° Southwest 490 564 36,000  Level Gander Center
Sun 10:39:25 AM 54.5833 -65.9833 248° West 490 564 36,000  Level Gander Center
Sun 10:40:25 AM 54.5167 -66.1833 240° Southwest 490 564 36,000  Level Gander Center
Sun 10:41:25 AM 54.4667 -66.4000 248° West 490 564 36,000  Level Gander Center
Sun 10:42:25 AM 54.4000 -66.6000 240° Southwest 490 564 36,000  Level Gander Center
Sun 10:43:25 AM 54.3333 -66.8167 242° Southwest 480 552 36,000  Level Gander Center
Sun 10:44:25 AM 54.2833 -67.0167 247° West 480 552 36,000  Level Gander Center
Sun 10:45:25 AM 54.2167 -67.2000 238° Southwest 470 541 36,000  Level Gander Center
Sun 10:46:25 AM 54.1667 -67.4000 247° West 480 552 36,000  Level Gander Center
Sun 10:47:22 AM 54.1000 -67.5333 230° Southwest 470 541 36,000  Level Montreal Center
Sun 10:48:22 AM 54.0500 -67.7500 249° West 470 541 36,000  Level Montreal Center
Sun 10:49:22 AM 53.9833 -67.9667 242° Southwest 470 541 36,000  Level Montreal Center
Sun 10:50:22 AM 53.9333 -68.1500 245° Southwest 470 541 36,000  Level Montreal Center
Sun 10:51:22 AM 53.8667 -68.3500 241° Southwest 470 541 36,000  Level Montreal Center
Sun 10:52:22 AM 53.8000 -68.5500 241° Southwest 470 541 36,000  Level Montreal Center
Sun 10:53:22 AM 53.7500 -68.7500 247° West 470 541 36,000  Level Montreal Center
Sun 10:54:22 AM 53.6667 -68.9333 233° Southwest 470 541 36,000  Level Montreal Center
Sun 10:55:22 AM 53.6167 -69.1500 249° West 470 541 36,000  Level Montreal Center
Sun 10:56:22 AM 53.5667 -69.3167 243° Southwest 470 541 36,000  Level Montreal Center
Sun 10:57:22 AM 53.4833 -69.5333 237° Southwest 480 552 36,000  Level Montreal Center
Sun 10:58:22 AM 53.4333 -69.7167 245° Southwest 480 552 36,000  Level Montreal Center
Sun 10:59:22 AM 53.3500 -69.9167 235° Southwest 480 552 36,000  Level Montreal Center
Sun 11:00:22 AM 53.3000 -70.1333 249° West 480 552 36,000  Level Montreal Center
Sun 11:01:22 AM 53.2167 -70.3000 230° Southwest 480 552 36,000  Level Montreal Center
Sun 11:02:22 AM 53.1667 -70.5167 249° West 480 552 36,000  Level Montreal Center
Sun 11:03:22 AM 53.1000 -70.6833 236° Southwest 480 552 36,000  Level Montreal Center
Sun 11:04:22 AM 53.0333 -70.9000 243° Southwest 480 552 36,000  Level Montreal Center
Sun 11:05:22 AM 52.9500 -71.1000 235° Southwest 470 541 36,000  Level Montreal Center
Sun 11:06:22 AM 52.9000 -71.3000 248° West 480 552 36,000  Level Montreal Center
Sun 11:07:22 AM 52.8333 -71.4833 239° Southwest 480 552 36,000  Level Montreal Center
Sun 11:08:22 AM 52.7500 -71.6833 236° Southwest 480 552 36,000  Level Montreal Center
Sun 11:09:22 AM 52.7000 -71.8500 244° Southwest 480 552 36,000  Level Montreal Center
Sun 11:10:22 AM 52.6167 -72.0500 236° Southwest 480 552 36,000  Level Montreal Center
Sun 11:11:22 AM 52.5500 -72.2167 237° Southwest 480 552 36,000  Level Montreal Center
Sun 11:12:22 AM 52.4833 -72.4333 243° Southwest 480 552 36,000  Level Montreal Center
Sun 11:13:22 AM 52.4167 -72.6167 239° Southwest 470 541 36,000  Level Montreal Center
Sun 11:14:22 AM 52.3500 -72.8167 241° Southwest 480 552 36,000  Level Montreal Center
Sun 11:15:22 AM 52.2833 -73.0000 239° Southwest 480 552 36,000  Level Montreal Center
Sun 11:16:22 AM 52.2167 -73.1667 237° Southwest 480 552 36,000  Level Montreal Center
Sun 11:17:22 AM 52.1333 -73.3833 238° Southwest 480 552 36,000  Level Montreal Center
Sun 11:18:22 AM 52.0667 -73.5500 237° Southwest 480 552 36,000  Level Montreal Center
Sun 11:19:22 AM 51.9833 -73.7500 236° Southwest 480 552 36,000  Level Montreal Center
Sun 11:20:22 AM 51.9167 -73.9167 237° Southwest 490 564 36,000  Level Montreal Center
Sun 11:21:22 AM 51.8500 -74.1167 242° Southwest 490 564 36,000  Level Montreal Center
Sun 11:22:22 AM 51.7833 -74.3000 240° Southwest 490 564 36,000  Level Montreal Center
Sun 11:23:22 AM 51.7000 -74.5000 236° Southwest 480 552 36,000  Level Montreal Center
Sun 11:24:22 AM 51.6333 -74.6667 237° Southwest 480 552 36,000  Level Montreal Center
Sun 11:25:22 AM 51.5667 -74.8500 240° Southwest 480 552 36,000  Level Montreal Center
Sun 11:26:22 AM 51.4833 -75.0500 236° Southwest 480 552 36,000  Level Montreal Center
Sun 11:27:22 AM 51.4167 -75.2167 237° Southwest 480 552 36,000  Level Montreal Center
Sun 11:28:22 AM 51.3333 -75.4000 234° Southwest 480 552 36,000  Level Montreal Center
Sun 11:29:22 AM 51.2667 -75.5667 237° Southwest 480 552 36,000  Level Montreal Center
Sun 11:30:22 AM 51.1833 -75.7500 234° Southwest 480 552 36,000  Level Montreal Center
Sun 11:31:22 AM 51.1167 -75.9333 240° Southwest 480 552 36,000  Level Montreal Center
Sun 11:32:22 AM 51.0333 -76.1000 232° Southwest 470 541 36,000  Level Montreal Center
Sun 11:33:22 AM 50.9667 -76.2833 240° Southwest 480 552 36,000  Level Montreal Center
Sun 11:34:22 AM 50.8833 -76.4667 234° Southwest 470 541 36,000  Level Montreal Center
Sun 11:35:22 AM 50.8167 -76.6333 238° Southwest 480 552 36,000  Level Montreal Center
Sun 11:36:22 AM 50.7333 -76.8167 234° Southwest 480 552 36,000  Level Montreal Center
Sun 11:37:22 AM 50.6667 -76.9667 235° Southwest 480 552 36,000  Level Montreal Center
Sun 11:38:22 AM 50.5833 -77.1333 232° Southwest 480 552 36,000  Level Montreal Center
Sun 11:39:22 AM 50.5000 -77.3167 234° Southwest 470 541 36,000  Level Montreal Center
Sun 11:40:22 AM 50.4333 -77.5000 240° Southwest 480 552 36,000  Level Montreal Center
Sun 11:41:22 AM 50.3667 -77.6500 235° Southwest 470 541 36,000  Level Montreal Center
Sun 11:42:22 AM 50.2833 -77.8333 235° Southwest 470 541 36,000  Level Montreal Center
Sun 11:43:22 AM 50.2167 -78.0167 240° Southwest 470 541 36,000  Level Montreal Center
Sun 11:44:22 AM 50.1167 -78.1667 224° Southwest 480 552 36,000  Level Montreal Center
Sun 11:45:22 AM 50.0500 -78.3167 235° Southwest 470 541 36,000  Level Montreal Center
Sun 11:46:22 AM 49.9667 -78.5000 235° Southwest 470 541 36,000  Level Montreal Center
Sun 11:47:22 AM 49.9000 -78.6500 235° Southwest 470 541 36,000  Level Montreal Center
Sun 11:48:22 AM 49.8167 -78.8333 235° Southwest 470 541 36,000  Level Montreal Center
Sun 11:49:22 AM 49.7500 -79.0167 241° Southwest 470 541 36,000  Level Montreal Center
Sun 11:50:22 AM 49.6667 -79.1667 229° Southwest 470 541 36,000  Level Montreal Center
Sun 11:51:22 AM 49.5833 -79.3333 232° Southwest 470 541 36,000  Level Montreal Center
Sun 11:52:22 AM 49.5000 -79.4833 229° Southwest 480 552 36,000  Level Montreal Center
Sun 11:53:22 AM 49.4333 -79.6667 241° Southwest 470 541 36,000  Level Montreal Center
Sun 11:54:22 AM 49.3500 -79.8167 230° Southwest 470 541 36,000  Level Montreal Center
Sun 11:55:22 AM 49.2667 -79.9833 233° Southwest 470 541 36,000  Level Montreal Center
Sun 11:56:22 AM 49.2000 -80.1333 236° Southwest 470 541 36,000  Level Montreal Center
Sun 11:57:22 AM 49.1167 -80.3167 235° Southwest 460 529 36,000  Level Montreal Center
Sun 11:58:22 AM 49.0333 -80.4500 226° Southwest 460 529 36,000  Level Montreal Center
Sun 11:59:22 AM 48.9500 -80.6333 235° Southwest 460 529 36,000  Level Montreal Center
Sun 12:00:22 PM 48.8833 -80.7667 233° Southwest 460 529 36,000  Level Montreal Center
Sun 12:01:22 PM 48.8000 -80.9167 230° Southwest 460 529 36,000  Level Montreal Center
Sun 12:01:55 PM 48.7500 -81.0000 228° Southwest 470 541 36,000  Level Toronto Center
Sun 12:02:55 PM 48.6667 -81.1500 230° Southwest 460 529 36,000  Level Toronto Center
Sun 12:03:55 PM 48.6000 -81.3000 236° Southwest 460 529 36,000  Level Toronto Center
Sun 12:04:55 PM 48.5167 -81.4333 227° Southwest 460 529 36,000  Level Toronto Center
Sun 12:05:55 PM 48.4333 -81.5833 230° Southwest 460 529 36,000  Level Toronto Center
Sun 12:06:22 PM 48.4000 -81.6833 243° Southwest 450 518 36,000  Level Montreal Center
Sun 12:06:55 PM 48.3667 -81.7333 225° Southwest 460 529 36,000  Level Toronto Center
Sun 12:07:55 PM 48.2833 -81.8833 230° Southwest 460 529 36,000  Level Toronto Center
Sun 12:08:22 PM 48.2500 -82.0000 247° West 450 518 36,000  Level Montreal Center
Sun 12:09:22 PM 48.1667 -82.1500 230° Southwest 460 529 36,000  Level Montreal Center
Sun 12:09:55 PM 48.1167 -82.2000 214° Southwest 460 529 36,000  Level Toronto Center
Sun 12:10:55 PM 48.0500 -82.3500 236° Southwest 450 518 36,000  Level Toronto Center
Sun 12:16:48 PM 47.5930 -83.1980 236° Southwest 448 516 36,000  Level FlightAware ADS-B
Sun 12:17:23 PM 47.5490 -83.2780 231° Southwest 449 517 36,000  Level FlightAware ADS-B
Sun 12:18:03 PM 47.4950 -83.3740 230° Southwest 448 516 36,000  Level FlightAware ADS-B
Sun 12:18:43 PM 47.4430 -83.4670 230° Southwest 446 513 36,000  Level FlightAware ADS-B
Sun 12:19:13 PM 47.4050 -83.5350 230° Southwest 444 511 36,000  Level FlightAware ADS-B
Sun 12:19:48 PM 47.3570 -83.6220 231° Southwest 445 512 36,000  Level FlightAware ADS-B
Sun 12:20:33 PM 47.2990 -83.7250 230° Southwest 445 512 36,000  Level FlightAware ADS-B
Sun 12:21:08 PM 47.2510 -83.8100 230° Southwest 445 512 36,000  Level FlightAware ADS-B
Sun 12:21:38 PM 47.2110 -83.8790 230° Southwest 448 516 36,000  Level FlightAware ADS-B
Sun 12:22:08 PM 47.1730 -83.9470 231° Southwest 448 516 36,000  Level FlightAware ADS-B
Sun 12:22:48 PM 47.1190 -84.0410 230° Southwest 447 514 36,000  Level FlightAware ADS-B
Sun 12:23:23 PM 47.0740 -84.1190 230° Southwest 448 516 36,000  Level FlightAware ADS-B
Sun 12:23:58 PM 47.0260 -84.2030 230° Southwest 447 514 36,000  Level FlightAware ADS-B
Sun 12:24:28 PM 46.9850 -84.2740 230° Southwest 446 513 36,000  Level FlightAware ADS-B
Sun 12:25:08 PM 46.9330 -84.3640 230° Southwest 444 511 36,000  Level FlightAware ADS-B
Sun 12:25:38 PM 46.8930 -84.4330 230° Southwest 444 511 36,000  Level FlightAware ADS-B
Sun 12:26:13 PM 46.8480 -84.5120 230° Southwest 444 511 36,000  Level FlightAware ADS-B
Sun 12:26:53 PM 46.7940 -84.6030 229° Southwest 443 510 36,000  Level FlightAware ADS-B
Sun 12:27:28 PM 46.7470 -84.6830 229° Southwest 441 507 36,000  Level FlightAware ADS-B
Sun 12:28:13 PM 46.6900 -84.7810 230° Southwest 437 503 36,000  Level FlightAware ADS-B
Sun 12:28:48 PM 46.6420 -84.8630 230° Southwest 436 502 36,000  Level FlightAware ADS-B
Sun 12:29:23 PM 46.5970 -84.9400 230° Southwest 435 501 36,000  Level FlightAware ADS-B
Sun 12:29:58 PM 46.5520 -85.0160 229° Southwest 436 502 36,000  Level FlightAware ADS-B
Sun 12:30:28 PM 46.5110 -85.0850 229° Southwest 436 502 36,000  Level FlightAware ADS-B
Sun 12:31:08 PM 46.4590 -85.1720 229° Southwest 433 498 36,000  Level FlightAware ADS-B
Sun 12:31:48 PM 46.4080 -85.2570 229° Southwest 431 496 36,000  Level FlightAware ADS-B
Sun 12:32:28 PM 46.3540 -85.3470 229° Southwest 427 491 36,000  Level FlightAware ADS-B
Sun 12:33:03 PM 46.3100 -85.4210 229° Southwest 425 489 36,000 -160 Level FlightAware ADS-B
Sun 12:33:43 PM 46.2590 -85.5060 229° Southwest 422 486 35,800 -776 Descending FlightAware ADS-B
Sun 12:34:28 PM 46.2020 -85.6000 229° Southwest 415 478 34,900 -1,267 Descending FlightAware ADS-B
Sun 12:35:13 PM 46.1460 -85.6910 228° Southwest 400 460 33,900 -1,200 Descending FlightAware ADS-B
Sun 12:35:53 PM 46.0970 -85.7720 229° Southwest 398 458 33,200 -1,129 Descending FlightAware ADS-B
Sun 12:36:38 PM 46.0430 -85.8620 229° Southwest 398 458 32,300 -1,029 Descending FlightAware ADS-B
Sun 12:37:03 PM 46.0140 -85.9090 228° Southwest 398 458 32,000 -257 Descending FlightAware ADS-B
Sun 12:37:48 PM 45.9600 -85.9980 229° Southwest 400 460 32,000  Level FlightAware ADS-B
Sun 12:38:28 PM 45.9120 -86.0750 228° Southwest 398 458 32,000  Level FlightAware ADS-B
Sun 12:39:28 PM 45.8430 -86.1850 228° Southwest 399 459 32,000  Level FlightAware ADS-B
Sun 12:40:08 PM 45.8010 -86.2520 228° Southwest 399 459 32,000  Level FlightAware ADS-B
Sun 12:40:38 PM 45.7700 -86.3020 228° Southwest 399 459 32,000  Level FlightAware ADS-B
Sun 12:41:08 PM 45.7380 -86.3520 227° Southwest 399 459 32,000  Level FlightAware ADS-B
Sun 12:41:48 PM 45.6960 -86.4190 228° Southwest 399 459 32,000  Level FlightAware ADS-B
Sun 12:42:38 PM 45.6440 -86.5020 228° Southwest 399 459 32,000  Level FlightAware ADS-B
Sun 12:43:08 PM 45.6120 -86.5520 228° Southwest 399 459 32,000  Level FlightAware ADS-B
Sun 12:43:48 PM 45.5700 -86.6190 228° Southwest 399 459 32,000  Level FlightAware ADS-B
Sun 12:44:28 PM 45.5280 -86.6860 228° Southwest 399 459 32,000  Level FlightAware ADS-B
Sun 12:45:08 PM 45.4860 -86.7520 228° Southwest 399 459 32,000  Level FlightAware ADS-B
Sun 12:45:48 PM 45.4440 -86.8190 228° Southwest 399 459 32,000  Level FlightAware ADS-B
Sun 12:46:38 PM 45.3920 -86.9020 228° Southwest 399 459 32,000  Level FlightAware ADS-B
Sun 12:47:08 PM 45.3600 -86.9520 228° Southwest 399 459 32,000  Level FlightAware ADS-B
Sun 12:47:38 PM 45.3290 -87.0010 228° Southwest 399 459 32,000  Level FlightAware ADS-B
Sun 12:48:33 PM 45.1550 -87.2760 228° Southwest 406 467 32,000  Level FlightAware ADS-B
Sun 12:49:08 PM 45.1100 -87.3480 228° Southwest 408 470 32,000  Level FlightAware ADS-B
Sun 12:49:53 PM 45.0520 -87.4370 227° Southwest 409 471 32,000  Level FlightAware ADS-B
Sun 12:50:43 PM 44.9920 -87.5300 228° Southwest 410 472 32,000  Level FlightAware ADS-B
Sun 12:51:33 PM 44.9250 -87.6330 227° Southwest 411 473 32,000  Level FlightAware ADS-B
Sun 12:52:03 PM 44.8880 -87.6890 227° Southwest 412 474 32,000  Level FlightAware ADS-B
Sun 12:52:48 PM 44.8310 -87.7770 228° Southwest 411 473 32,000  Level FlightAware ADS-B
Sun 12:53:28 PM 44.7790 -87.8560 227° Southwest 411 473 32,000  Level FlightAware ADS-B
Sun 12:54:18 PM 44.7120 -87.9590 228° Southwest 409 471 32,000  Level FlightAware ADS-B
Sun 12:55:23 PM 44.6340 -88.0770 227° Southwest 410 472 32,000  Level FlightAware ADS-B
Sun 12:56:08 PM 44.5690 -88.1720 226° Southwest 410 472 32,000  Level FlightAware ADS-B
Sun 12:56:53 PM 44.4960 -88.2440 215° Southwest 423 487 32,000  Level FlightAware ADS-B
Sun 12:57:33 PM 44.4360 -88.2940 211° Southwest 420 483 32,000 -141 Level FlightAware ADS-B
Sun 12:58:18 PM 44.3620 -88.3540 210° Southwest 418 481 31,800 -900 Descending FlightAware ADS-B
Sun 12:58:53 PM 44.3070 -88.4000 211° Southwest 415 478 30,800 -1,412 Descending FlightAware ADS-B
Sun 12:59:43 PM 44.2200 -88.4730 211° Southwest 415 478 29,800 -1,137 Descending FlightAware ADS-B
Sun 01:00:28 PM 44.1420 -88.5370 210° Southwest 413 475 29,000 -975 Descending FlightAware ADS-B
Sun 01:01:03 PM 44.0910 -88.5790 211° Southwest 414 476 28,500 -960 Descending FlightAware ADS-B
Sun 01:01:43 PM 44.0200 -88.6370 210° Southwest 413 475 27,800 -1,200 Descending FlightAware ADS-B
Sun 01:02:23 PM 43.9540 -88.6910 211° Southwest 420 483 26,900 -933 Descending FlightAware ADS-B
Sun 01:03:13 PM 43.8700 -88.7590 210° Southwest 429 494 26,400 -1,326 Descending FlightAware ADS-B
Sun 01:03:58 PM 43.7900 -88.8240 210° Southwest 430 495 24,800 -1,765 Descending FlightAware ADS-B
Sun 01:04:38 PM 43.7290 -88.8730 210° Southwest 418 481 23,900 -1,520 Descending FlightAware ADS-B
Sun 01:05:13 PM 43.6630 -88.9260 210° Southwest 414 476 22,900 -1,477 Descending FlightAware ADS-B
Sun 01:05:43 PM 43.6200 -88.9610 211° Southwest 410 472 22,300 -1,200 Descending FlightAware ADS-B
Sun 01:06:28 PM 43.5460 -89.0200 210° Southwest 382 440 21,400 -1,059 Descending FlightAware ADS-B
Sun 01:07:08 PM 43.4910 -89.0650 211° Southwest 359 413 20,800 -1,360 Descending FlightAware ADS-B
Sun 01:07:43 PM 43.4340 -89.1100 210° Southwest 354 407 19,700 -1,500 Descending FlightAware ADS-B
Sun 01:08:28 PM 43.3720 -89.1600 210° Southwest 345 397 18,800 -1,341 Descending FlightAware ADS-B
Sun 01:09:08 PM 43.3160 -89.2040 210° Southwest 342 394 17,800 -1,200 Descending FlightAware ADS-B
Sun 01:09:43 PM 43.2740 -89.2380 211° Southwest 334 384 17,300 -1,059 Descending FlightAware ADS-B
Sun 01:10:33 PM 43.2050 -89.2920 210° Southwest 324 373 16,300 -1,133 Descending FlightAware ADS-B
Sun 01:11:13 PM 43.1540 -89.3300 209° Southwest 323 372 15,600 -982 Descending FlightAware ADS-B
Sun 01:11:28 PM 43.1330 -89.3340 188° South 328 377 15,400 -1,333 Descending FlightAware ADS-B
Sun 01:11:58 PM 43.0820 -89.3200 169° South 345 397 14,600 -1,629 Descending FlightAware ADS-B
Sun 01:12:38 PM 43.0280 -89.2740 148° Southeast 367 422 13,500 -1,125 Descending FlightAware ADS-B
Sun 01:13:18 PM 42.9750 -89.2100 139° Southeast 386 444 13,100 -320 Descending FlightAware ADS-B
Sun 01:13:53 PM 42.9280 -89.1530 138° Southeast 385 443 13,100  Level FlightAware ADS-B
Sun 01:14:28 PM 42.8800 -89.0950 138° Southeast 385 443 13,100  Level FlightAware ADS-B
Sun 01:15:08 PM 42.8310 -89.0360 139° Southeast 384 442 13,100 -71 Level FlightAware ADS-B
Sun 01:15:53 PM 42.7670 -88.9610 139° Southeast 384 442 13,000  Descending FlightAware ADS-B
Sun 01:16:28 PM 42.7230 -88.9090 139° Southeast 384 442 13,100 92 Climbing FlightAware ADS-B
Sun 01:16:58 PM 42.6820 -88.8600 139° Southeast 384 442 13,100 -257 Level FlightAware ADS-B
Sun 01:17:38 PM 42.6270 -88.7950 139° Southeast 389 448 12,800 -867 Descending FlightAware ADS-B
Sun 01:18:28 PM 42.5590 -88.7150 139° Southeast 376 433 11,800 -1,200 Descending FlightAware ADS-B
Sun 01:19:03 PM 42.5150 -88.6640 139° Southeast 367 422 11,100 -1,200 Descending FlightAware ADS-B
Sun 01:19:48 PM 42.4620 -88.6010 139° Southeast 345 397 10,200 -1,286 Descending FlightAware ADS-B
Sun 01:20:13 PM 42.4290 -88.5630 140° Southeast 338 389 9,600 -1,100 Descending FlightAware ADS-B
Sun 01:20:48 PM 42.3900 -88.5170 139° Southeast 337 388 9,100 -462 Descending FlightAware ADS-B
Sun 01:21:18 PM 42.3620 -88.4570 122° Southeast 360 414 9,100  Level FlightAware ADS-B
Sun 01:21:48 PM 42.3420 -88.4040 117° Southeast 342 394 9,100  Level FlightAware ADS-B
Sun 01:22:03 PM 42.3240 -88.3860 144° Southeast 328 377 9,100  Level FlightAware ADS-B
Sun 01:22:18 PM 42.2990 -88.3760 164° South 313 360 9,100 -120 Level FlightAware ADS-B
Sun 01:22:53 PM 42.2570 -88.3680 172° South 284 327 9,000 -100 Descending FlightAware ADS-B
Sun 01:23:18 PM 42.2220 -88.3610 172° South 255 293 9,000 120 Level FlightAware ADS-B
Sun 01:23:43 PM 42.1940 -88.3540 170° South 226 260 9,100 120 Climbing FlightAware ADS-B
Sun 01:24:08 PM 42.1690 -88.3480 170° South 213 245 9,100 -257 Level FlightAware ADS-B
Sun 01:24:53 PM 42.1300 -88.3420 173° South 162 186 8,800 -686 Descending FlightAware ADS-B
Sun 01:25:18 PM 42.1130 -88.3460 190° South 159 183 8,300 -1,200 Descending FlightAware ADS-B
Sun 01:25:33 PM 42.1040 -88.3490 194° South 158 182 8,000 -1,200 Descending FlightAware ADS-B
Sun 01:26:08 PM 42.0850 -88.3650 212° Southwest 151 174 7,300 -1,309 Descending FlightAware ADS-B
Sun 01:26:28 PM 42.0810 -88.3870 256° West 152 175 6,800 -1,371 Descending FlightAware ADS-B
Sun 01:26:43 PM 42.0760 -88.3990 241° Southwest 146 168 6,500 -960 Descending FlightAware ADS-B
Sun 01:26:53 PM 42.0720 -88.4030 217° Southwest 146 168 6,400 -960 Descending FlightAware ADS-B
Sun 01:27:08 PM 42.0620 -88.4060 193° South 149 171 6,100 -327 Descending FlightAware ADS-B
Sun 01:27:48 PM 42.0330 -88.3990 170° South 157 181 6,100  Level FlightAware ADS-B
Sun 01:27:58 PM 42.0240 -88.3970 171° South 158 182 6,100  Level FlightAware ADS-B
Sun 01:28:18 PM 42.0110 -88.3920 164° South 165 190 6,100  Level FlightAware ADS-B
Sun 01:28:28 PM 42.0060 -88.3860 138° Southeast 180 207 6,100  Level FlightAware ADS-B
Sun 01:28:48 PM 41.9970 -88.3630 118° Southeast 193 222 6,100  Level FlightAware ADS-B
Sun 01:29:08 PM 41.9890 -88.3390 114° Southeast 193 222 6,100  Level FlightAware ADS-B
Sun 01:29:23 PM 41.9830 -88.3220 115° Southeast 194 223 6,100  Level FlightAware ADS-B
Sun 01:29:43 PM 41.9770 -88.3040 114° Southeast 194 223 6,100 -171 Level FlightAware ADS-B
Sun 01:29:58 PM 41.9710 -88.2870 115° Southeast 196 226 6,000 -600 Descending FlightAware ADS-B
Sun 01:30:13 PM 41.9680 -88.2700 103° East 208 239 5,800 -1,067 Descending FlightAware ADS-B
Sun 01:30:43 PM 41.9680 -88.2260 90° East 213 245 5,200 -1,200 Descending FlightAware ADS-B
Sun 01:31:03 PM 41.9680 -88.2030 90° East 210 242 4,800 -1,200 Descending FlightAware ADS-B
Sun 01:31:28 PM 41.9680 -88.1710 90° East 206 237 4,300 -1,200 Descending FlightAware ADS-B
Sun 01:31:53 PM 41.9680 -88.1360 90° East 205 236 3,800 -1,091 Descending FlightAware ADS-B
Sun 01:32:23 PM 41.9680 -88.0990 90° East 190 219 3,300 -1,067 Descending FlightAware ADS-B
Sun 01:32:38 PM 41.9690 -88.0820 85° East 174 200 3,000 -1,050 Descending FlightAware ADS-B
Sun 01:33:03 PM 41.9690 -88.0570 90° East 160 184 2,600 -840 Descending FlightAware ADS-B
Sun 01:33:28 PM 41.9690 -88.0340 90° East 150 173 2,300 -800 Descending FlightAware ADS-B
Sun 01:34:03 PM 41.9690 -88.0000 90° East 148 170 1,800 -831 Descending FlightAware ADS-B
Sun 01:34:33 PM 41.9690 -87.9730 90° East 139 160 1,400 -764 Descending FlightAware ADS-B
Sun 01:34:58 PM 41.9690 -87.9530 90° East 140 161 1,100 -800 Descending FlightAware ADS-B
Sun 01:35:18 PM 41.9690 -87.9350 90° East 145 167 800 -900 Descending FlightAware ADS-B

Login

Don't have an account? Register now (free) for customized features, flight alerts, and more!